This is the latest recevied weather packets stored in our database for station/object F5MAP-5. If no packets are shown the sender has not sent any weather packets the latest 1 day(s).
| Time | Temp. | Humidity | Pressure | Rain* | Wind** | Luminosity | Snow |
|---|---|---|---|---|---|---|---|
| 1778031732 | 11.67° C | 89% | 1007.8 hPa | 0 mm | - | 0 W/m² | - |
| 1778031132 | 11.67° C | 89% | 1007.9 hPa | 0 mm | - | 0 W/m² | - |
| 1778030532 | 11.67° C | 89% | 1008 hPa | 0 mm | - | 0 W/m² | - |
| 1778029932 | 11.67° C | 89% | 1008.1 hPa | 0 mm | - | 0 W/m² | - |
| 1778029332 | 12.22° C | 89% | 1008 hPa | 0 mm | - | 0 W/m² | - |
| 1778028732 | 12.22° C | 89% | 1007.9 hPa | 0 mm | - | 0 W/m² | - |
| 1778028132 | 12.22° C | 89% | 1007.9 hPa | 0 mm | - | 0 W/m² | - |
| 1778027532 | 12.22° C | 89% | 1008 hPa | 0 mm | - | 0 W/m² | - |
| 1778026932 | 12.22° C | 89% | 1008 hPa | 0 mm | - | 0 W/m² | - |
| 1778026332 | 12.22° C | 89% | 1008.2 hPa | 0 mm | - | 0 W/m² | - |
| 1778025132 | 12.22° C | 90% | 1008.4 hPa | 0 mm | - | 0 W/m² | - |
| 1778023932 | 12.22° C | 90% | 1008.8 hPa | 0 mm | - | 0 W/m² | - |
| 1778023332 | 12.22° C | 90% | 1008.8 hPa | 0 mm | - | 0 W/m² | - |
| 1778022732 | 12.22° C | 90% | 1008.9 hPa | 0 mm | - | 0 W/m² | - |
| 1778021532 | 12.22° C | 90% | 1008.8 hPa | 0 mm | - | 0 W/m² | - |
| 1778020932 | 12.22° C | 90% | 1008.8 hPa | 0 mm | - | 0 W/m² | - |
| 1778020332 | 12.22° C | 90% | 1008.8 hPa | 0 mm | - | 0 W/m² | - |
| 1778014931 | 12.78° C | 88% | 1008.8 hPa | 0 mm | - | 0 W/m² | - |
| 1778011332 | 13.89° C | 86% | 1008.6 hPa | 0 mm | - | 0 W/m² | - |
| 1778010732 | 13.89° C | 85% | 1008.7 hPa | 0 mm | - | 0 W/m² | - |
| 1778010132 | 13.89° C | 85% | 1008.5 hPa | 0 mm | - | 0 W/m² | - |
| 1778008932 | 14.44° C | 84% | 1008.5 hPa | 0 mm | - | 0 W/m² | - |
| 1778007732 | 14.44° C | 84% | 1008.2 hPa | 0 mm | - | 0 W/m² | - |
| 1778004131 | 16.11° C | 83% | 1007.9 hPa | 0 mm | - | 9 W/m² | - |
* Rain latest hour (hover to see other rain measurements)
** Current wind speed in m/s (hover to see current wind gust speed)